Time;durP1;ratioP1;P1;durP2;ratioP2;P2;SDS_P1;SDS_P2;PMS_P1;PMS_P2;Temp;Humidity;BMP_temperature;BMP_pressure;BME280_temperature;BME280_humidity;BME280_pressure;Samples;Min_cycle;Max_cycle;Signal;HPM_P1;HPM_P2
2022/07/10 00:01:19;;;;;;;2.00;1.73;;;;;;;;;;21078638;28;20047;-63
2022/07/10 00:11:22;;;;;;;2.85;1.30;;;;;;;;;;21077296;28;20052;-63
2022/07/10 00:21:24;;;;;;;4.75;1.55;;;;;;;;;;21085848;28;20073;-64
2022/07/10 00:31:26;;;;;;;1.98;1.20;;;;;;;;;;21093104;28;20058;-63
2022/07/10 00:41:28;;;;;;;3.22;1.20;;;;;;;;;;21092346;28;20055;-63
2022/07/10 00:51:30;;;;;;;1.92;1.10;;;;;;;;;;21092681;28;20097;-65
2022/07/10 01:01:33;;;;;;;3.33;1.13;;;;;;;;;;21091776;28;20416;-63
2022/07/10 01:11:35;;;;;;;4.30;1.02;;;;;;;;;;21089668;28;20056;-64
2022/07/10 01:21:38;;;;;;;4.72;1.30;;;;;;;;;;21089001;28;20044;-64
2022/07/10 01:31:42;;;;;;;5.65;1.00;;;;;;;;;;21088372;28;20381;-64
2022/07/10 01:41:49;;;;;;;1.80;0.98;;;;;;;;;;21088051;28;20048;-63
2022/07/10 01:51:58;;;;;;;2.20;1.00;;;;;;;;;;21086663;28;20051;-63
2022/07/10 02:02:10;;;;;;;1.17;0.90;;;;;;;;;;21085665;28;20054;-61
2022/07/10 02:12:20;;;;;;;2.42;1.15;;;;;;;;;;21084775;28;20119;-61
2022/07/10 02:22:27;;;;;;;2.22;1.20;;;;;;;;;;21084737;28;20075;-63
2022/07/10 02:32:41;;;;;;;3.22;0.80;;;;;;;;;;21083938;28;20052;-63
2022/07/10 02:42:51;;;;;;;1.30;0.75;;;;;;;;;;21083602;28;20480;-63
2022/07/10 02:52:55;;;;;;;3.00;0.90;;;;;;;;;;21082141;28;20044;-63
2022/07/10 03:03:09;;;;;;;1.45;0.82;;;;;;;;;;21081382;28;20056;-63
2022/07/10 03:13:17;;;;;;;3.13;0.90;;;;;;;;;;21081275;28;20404;-64
2022/07/10 03:23:22;;;;;;;1.00;0.75;;;;;;;;;;21080541;28;20412;-63
2022/07/10 03:33:29;;;;;;;1.90;0.82;;;;;;;;;;21080003;28;20052;-63
2022/07/10 03:43:31;;;;;;;1.92;0.88;;;;;;;;;;21079096;28;20052;-64
2022/07/10 03:53:34;;;;;;;1.40;1.00;;;;;;;;;;21083747;28;20067;-63
2022/07/10 04:03:36;;;;;;;1.70;0.95;;;;;;;;;;21095239;28;20129;-64
2022/07/10 04:13:39;;;;;;;1.30;1.00;;;;;;;;;;21093987;28;20113;-62
2022/07/10 04:23:41;;;;;;;2.40;0.85;;;;;;;;;;21075827;28;20484;-63
2022/07/10 04:33:44;;;;;;;4.70;1.10;;;;;;;;;;21074958;28;20059;-64
2022/07/10 04:43:46;;;;;;;2.17;1.15;;;;;;;;;;21092419;28;20047;-64
2022/07/10 04:53:48;;;;;;;2.83;0.90;;;;;;;;;;21091201;28;20048;-63
2022/07/10 05:03:50;;;;;;;2.75;1.00;;;;;;;;;;21091220;28;20496;-64
2022/07/10 05:13:53;;;;;;;1.85;1.10;;;;;;;;;;21090108;28;20106;-63
2022/07/10 05:23:55;;;;;;;2.03;0.98;;;;;;;;;;21089968;28;20048;-64
2022/07/10 05:33:57;;;;;;;3.70;1.00;;;;;;;;;;21092034;28;20055;-62
2022/07/10 05:44:00;;;;;;;2.35;1.30;;;;;;;;;;21089609;28;20114;-63
2022/07/10 05:54:03;;;;;;;1.45;1.05;;;;;;;;;;21087006;28;20131;-63
2022/07/10 06:04:05;;;;;;;4.03;1.15;;;;;;;;;;21086900;28;20052;-64
2022/07/10 06:14:07;;;;;;;2.13;1.10;;;;;;;;;;21085720;28;20048;-63
2022/07/10 06:24:09;;;;;;;1.52;1.00;;;;;;;;;;21084860;28;20056;-64
2022/07/10 06:34:11;;;;;;;1.95;1.00;;;;;;;;;;21083865;28;20071;-64
2022/07/10 06:44:14;;;;;;;2.45;1.55;;;;;;;;;;21083728;28;20135;-64
2022/07/10 06:54:16;;;;;;;3.88;1.40;;;;;;;;;;21082507;28;20105;-63
2022/07/10 07:04:18;;;;;;;3.38;1.65;;;;;;;;;;21081060;28;20055;-63
2022/07/10 07:14:21;;;;;;;5.60;1.33;;;;;;;;;;21082730;28;20044;-64
2022/07/10 07:24:23;;;;;;;2.40;1.33;;;;;;;;;;21081683;28;20044;-63
2022/07/10 07:34:26;;;;;;;3.72;1.52;;;;;;;;;;21061727;28;20070;-63
2022/07/10 07:44:29;;;;;;;4.22;1.50;;;;;;;;;;21078818;28;20044;-64
2022/07/10 07:54:31;;;;;;;3.20;1.45;;;;;;;;;;21078307;28;20059;-64
2022/07/10 08:04:33;;;;;;;2.97;1.52;;;;;;;;;;21078160;28;20048;-63
2022/07/10 08:14:35;;;;;;;3.28;1.38;;;;;;;;;;21077444;28;20080;-62
2022/07/10 08:24:37;;;;;;;4.38;1.40;;;;;;;;;;21077522;28;20055;-62
2022/07/10 08:34:40;;;;;;;2.38;1.55;;;;;;;;;;21077176;28;20059;-62
2022/07/10 08:44:42;;;;;;;2.00;1.45;;;;;;;;;;21089262;28;20048;-61
2022/07/10 08:54:45;;;;;;;2.92;1.38;;;;;;;;;;21091437;28;20052;-64
2022/07/10 09:04:47;;;;;;;2.50;1.52;;;;;;;;;;21090816;28;20051;-63
2022/07/10 09:14:50;;;;;;;5.00;1.40;;;;;;;;;;21090324;28;20044;-66
2022/07/10 09:24:52;;;;;;;4.70;1.70;;;;;;;;;;21090191;28;20439;-63
2022/07/10 09:45:16;;;;;;;3.92;1.95;;;;;;;;;;21088181;28;20134;-63
2022/07/10 09:55:20;;;;;;;5.00;1.73;;;;;;;;;;21086789;28;20134;-63
2022/07/10 10:05:27;;;;;;;5.05;1.90;;;;;;;;;;21088035;28;20067;-63
2022/07/10 10:15:31;;;;;;;2.97;2.05;;;;;;;;;;21086391;28;20079;-63
2022/07/10 10:25:34;;;;;;;3.75;2.15;;;;;;;;;;21085803;28;20491;-63
2022/07/10 10:35:47;;;;;;;4.57;1.67;;;;;;;;;;21089301;28;20066;-63
2022/07/10 10:45:49;;;;;;;4.55;1.75;;;;;;;;;;21087052;28;20044;-63
2022/07/10 10:56:00;;;;;;;7.38;1.75;;;;;;;;;;21082961;28;20052;-63
2022/07/10 11:06:04;;;;;;;4.50;1.80;;;;;;;;;;21080970;28;20394;-63
2022/07/10 11:16:12;;;;;;;5.63;1.75;;;;;;;;;;21080608;28;20052;-63
2022/07/10 11:26:21;;;;;;;4.60;2.30;;;;;;;;;;21082572;28;20040;-62
2022/07/10 11:36:28;;;;;;;4.40;2.20;;;;;;;;;;21080188;28;20138;-64
2022/07/10 11:46:35;;;;;;;3.45;2.30;;;;;;;;;;21079169;28;20043;-63
2022/07/10 11:56:38;;;;;;;2.33;1.67;;;;;;;;;;21078539;28;20048;-63
2022/07/10 12:06:42;;;;;;;4.65;2.60;;;;;;;;;;21077870;28;20040;-63
2022/07/10 12:16:48;;;;;;;3.70;1.85;;;;;;;;;;21085278;28;20059;-64
2022/07/10 12:26:52;;;;;;;2.63;1.30;;;;;;;;;;21093963;28;20489;-63
2022/07/10 12:36:54;;;;;;;6.55;1.48;;;;;;;;;;21093874;28;20051;-61
2022/07/10 12:47:08;;;;;;;4.05;1.75;;;;;;;;;;21092991;28;20502;-63
2022/07/10 12:57:11;;;;;;;2.50;1.73;;;;;;;;;;21091843;28;20079;-62
2022/07/10 13:07:13;;;;;;;3.63;1.75;;;;;;;;;;21090722;28;20508;-64
2022/07/10 13:17:16;;;;;;;2.33;1.67;;;;;;;;;;21089756;28;20052;-64
2022/07/10 13:27:20;;;;;;;3.22;2.33;;;;;;;;;;21089587;28;20056;-63
2022/07/10 13:37:22;;;;;;;4.60;1.60;;;;;;;;;;21088354;28;20076;-65
2022/07/10 13:47:24;;;;;;;1.73;1.60;;;;;;;;;;21088582;28;20416;-63
2022/07/10 13:57:26;;;;;;;5.10;2.25;;;;;;;;;;21086860;28;20110;-63
2022/07/10 14:07:28;;;;;;;1.65;1.20;;;;;;;;;;21085829;28;20052;-65
2022/07/10 14:17:30;;;;;;;3.90;1.60;;;;;;;;;;21085168;28;20056;-63
2022/07/10 14:27:33;;;;;;;2.10;1.48;;;;;;;;;;21084092;28;20130;-63
2022/07/10 14:37:35;;;;;;;2.50;1.30;;;;;;;;;;21083901;28;20053;-64
2022/07/10 14:47:37;;;;;;;2.58;1.60;;;;;;;;;;21065054;28;20044;-63
2022/07/10 14:57:39;;;;;;;1.95;1.65;;;;;;;;;;21081130;28;20055;-64
2022/07/10 15:07:41;;;;;;;3.38;1.45;;;;;;;;;;21079672;28;20062;-64
2022/07/10 15:17:44;;;;;;;4.25;1.73;;;;;;;;;;21080835;28;20389;-64
2022/07/10 15:27:46;;;;;;;2.28;1.42;;;;;;;;;;21080789;28;20051;-63
2022/07/10 15:37:48;;;;;;;1.75;1.65;;;;;;;;;;21078268;28;20420;-63
2022/07/10 15:47:50;;;;;;;4.43;1.77;;;;;;;;;;21076588;28;20078;-63
2022/07/10 15:57:51;;;;;;;2.20;2.00;;;;;;;;;;21076730;28;20117;-62
2022/07/10 16:07:53;;;;;;;3.65;1.40;;;;;;;;;;21076318;28;20059;-61
2022/07/10 16:17:55;;;;;;;1.88;1.60;;;;;;;;;;21076826;28;20205;-62
2022/07/10 16:27:56;;;;;;;1.75;1.50;;;;;;;;;;21077460;28;20047;-61
2022/07/10 16:37:58;;;;;;;2.25;1.73;;;;;;;;;;21076799;28;20436;-62
2022/07/10 16:48:00;;;;;;;2.58;1.60;;;;;;;;;;21076833;28;20072;-62
2022/07/10 16:58:02;;;;;;;2.33;1.63;;;;;;;;;;21076444;28;20052;-62
2022/07/10 17:08:07;;;;;;;2.85;1.55;;;;;;;;;;21090331;28;20052;-62
2022/07/10 17:18:09;;;;;;;3.22;1.70;;;;;;;;;;21089402;28;20082;-63
2022/07/10 17:28:12;;;;;;;4.55;1.85;;;;;;;;;;21089182;28;20082;-64
2022/07/10 17:38:15;;;;;;;2.85;1.55;;;;;;;;;;21088044;28;20086;-64
2022/07/10 17:48:16;;;;;;;3.53;1.50;;;;;;;;;;21088576;28;20473;-63
2022/07/10 17:58:18;;;;;;;1.98;1.52;;;;;;;;;;21086698;28;20056;-64
2022/07/10 18:08:21;;;;;;;2.65;1.83;;;;;;;;;;21086388;28;20496;-64
2022/07/10 18:18:23;;;;;;;2.75;1.48;;;;;;;;;;21085217;28;20082;-63
2022/07/10 18:28:26;;;;;;;4.03;2.03;;;;;;;;;;21085443;28;20048;-63
2022/07/10 18:38:27;;;;;;;1.55;1.45;;;;;;;;;;21085156;28;20052;-63
2022/07/10 18:48:29;;;;;;;8.18;4.32;;;;;;;;;;21083888;28;20055;-64
2022/07/10 18:58:31;;;;;;;4.43;2.08;;;;;;;;;;21082125;28;20044;-66
2022/07/10 19:08:33;;;;;;;5.13;3.13;;;;;;;;;;21081374;28;20055;-61
2022/07/10 19:18:35;;;;;;;2.83;2.25;;;;;;;;;;21080593;28;20052;-64
2022/07/10 19:28:37;;;;;;;4.18;2.50;;;;;;;;;;21080609;28;20044;-63
2022/07/10 19:38:38;;;;;;;10.05;2.60;;;;;;;;;;21079066;28;20048;-64
2022/07/10 19:48:45;;;;;;;6.18;2.95;;;;;;;;;;21078767;28;20044;-64
2022/07/10 19:58:47;;;;;;;3.55;2.58;;;;;;;;;;21078044;28;20095;-63
2022/07/10 20:08:49;;;;;;;7.75;3.03;;;;;;;;;;21077557;28;20056;-62
2022/07/10 20:18:51;;;;;;;10.48;5.05;;;;;;;;;;21078085;28;20051;-65
2022/07/10 20:28:54;;;;;;;5.57;2.72;;;;;;;;;;21077000;28;20052;-63
2022/07/10 20:38:55;;;;;;;4.90;2.63;;;;;;;;;;21086230;28;20048;-63
2022/07/10 20:48:57;;;;;;;4.40;2.85;;;;;;;;;;21092189;28;20055;-63
2022/07/10 20:58:58;;;;;;;5.63;2.28;;;;;;;;;;21091079;28;20056;-64
2022/07/10 21:09:00;;;;;;;4.32;2.88;;;;;;;;;;21090578;28;20063;-64
2022/07/10 21:19:02;;;;;;;4.10;2.97;;;;;;;;;;21089975;28;20059;-64
2022/07/10 21:29:03;;;;;;;3.60;2.90;;;;;;;;;;21089491;28;20407;-65
2022/07/10 21:39:05;;;;;;;5.40;2.38;;;;;;;;;;21089576;28;20051;-66
2022/07/10 21:49:07;;;;;;;6.68;2.67;;;;;;;;;;21087948;28;20439;-65
2022/07/10 21:59:08;;;;;;;16.33;13.30;;;;;;;;;;21087367;28;20054;-63
2022/07/10 22:09:10;;;;;;;6.88;3.17;;;;;;;;;;21087113;28;20048;-64
2022/07/10 22:19:12;;;;;;;2.78;2.38;;;;;;;;;;21086352;28;20098;-66
2022/07/10 22:29:14;;;;;;;7.35;2.35;;;;;;;;;;21085891;28;20048;-63
2022/07/10 22:39:15;;;;;;;5.35;2.58;;;;;;;;;;21066402;28;20477;-65
2022/07/10 22:49:17;;;;;;;4.65;2.63;;;;;;;;;;21083802;28;20044;-66
2022/07/10 22:59:19;;;;;;;6.95;2.58;;;;;;;;;;21081783;28;20067;-65
2022/07/10 23:09:20;;;;;;;4.28;2.50;;;;;;;;;;21081076;28;20056;-65
2022/07/10 23:19:22;;;;;;;6.90;2.60;;;;;;;;;;21080719;28;20063;-64
2022/07/10 23:29:24;;;;;;;5.47;3.17;;;;;;;;;;21080416;28;20044;-65
2022/07/10 23:39:26;;;;;;;5.10;2.45;;;;;;;;;;21079615;28;20055;-65
2022/07/10 23:59:48;;;;;;;6.15;1.63;;;;;;;;;;21078584;28;20056;-64
